Time;durP1;ratioP1;P1;durP2;ratioP2;P2;SDS_P1;SDS_P2;PMS_P1;PMS_P2;Temp;Humidity;BMP_temperature;BMP_pressure;BME280_temperature;BME280_humidity;BME280_pressure;Samples;Min_cycle;Max_cycle;Signal;HPM_P1;HPM_P2
2021/12/23 00:01:40;;;;;;;11.35;7.90;;;;;;;;;;143732;606;46022;-60
2021/12/23 00:04:09;;;;;;;9.88;7.25;;;;;;;;;;143730;659;46010;-60
2021/12/23 00:06:36;;;;;;;8.15;6.37;;;;;;;;;;143738;579;45023;-60
2021/12/23 00:09:04;;;;;;;12.57;6.57;;;;;;;;;;143734;596;46010;-60
2021/12/23 00:11:32;;;;;;;9.27;5.97;;;;;;;;;;143733;582;46022;-60
2021/12/23 00:14:05;;;;;;;10.00;6.43;;;;;;;;;;143730;571;46018;-60
2021/12/23 00:16:43;;;;;;;10.50;6.18;;;;;;;;;;143738;587;46022;-60
2021/12/23 00:19:33;;;;;;;8.73;5.87;;;;;;;;;;143733;564;46020;-60
2021/12/23 00:24:46;;;;;;;8.07;5.80;;;;;;;;;;143734;577;46012;-60
2021/12/23 00:27:14;;;;;;;8.65;5.90;;;;;;;;;;143733;592;46022;-60
2021/12/23 00:29:42;;;;;;;7.57;5.62;;;;;;;;;;143729;596;46021;-60
2021/12/23 00:32:09;;;;;;;11.35;5.78;;;;;;;;;;143731;589;46022;-60
2021/12/23 00:34:39;;;;;;;10.55;6.20;;;;;;;;;;143731;594;46010;-61
2021/12/23 00:37:10;;;;;;;9.27;6.68;;;;;;;;;;143732;597;46023;-60
2021/12/23 00:39:37;;;;;;;9.82;6.25;;;;;;;;;;143734;598;46018;-60
2021/12/23 00:42:08;;;;;;;13.40;6.70;;;;;;;;;;143733;576;46023;-61
2021/12/23 00:44:40;;;;;;;9.80;6.00;;;;;;;;;;143734;733;46913;-60
2021/12/23 00:47:07;;;;;;;8.73;5.95;;;;;;;;;;143735;588;46010;-60
2021/12/23 00:49:34;;;;;;;9.15;5.97;;;;;;;;;;143732;576;46020;-60
2021/12/23 00:52:03;;;;;;;7.43;5.80;;;;;;;;;;143729;731;46023;-60
2021/12/23 00:54:30;;;;;;;8.63;5.78;;;;;;;;;;143732;564;46010;-60
2021/12/23 00:56:57;;;;;;;9.63;6.62;;;;;;;;;;143738;569;46022;-60
2021/12/23 00:59:24;;;;;;;9.95;6.90;;;;;;;;;;143732;686;46021;-60
2021/12/23 01:01:51;;;;;;;9.77;7.32;;;;;;;;;;143732;645;46022;-60
2021/12/23 01:04:19;;;;;;;7.87;5.62;;;;;;;;;;143729;604;46011;-60
2021/12/23 01:06:45;;;;;;;9.80;6.53;;;;;;;;;;143734;581;45030;-60
2021/12/23 01:09:13;;;;;;;10.60;5.70;;;;;;;;;;143730;607;46020;-60
2021/12/23 01:11:40;;;;;;;7.53;5.50;;;;;;;;;;143732;591;46023;-60
2021/12/23 01:14:27;;;;;;;12.05;6.72;;;;;;;;;;143735;572;46010;-60
2021/12/23 01:19:49;;;;;;;8.27;6.18;;;;;;;;;;143739;593;46010;-60
2021/12/23 01:22:17;;;;;;;13.40;6.78;;;;;;;;;;143733;646;46022;-60
2021/12/23 01:24:44;;;;;;;10.50;6.75;;;;;;;;;;143734;672;46010;-60
2021/12/23 01:27:11;;;;;;;10.80;6.35;;;;;;;;;;143737;624;45023;-60
2021/12/23 01:29:38;;;;;;;8.32;6.12;;;;;;;;;;143734;586;46018;-60
2021/12/23 01:32:07;;;;;;;8.98;6.57;;;;;;;;;;143733;637;46022;-60
2021/12/23 01:34:35;;;;;;;13.70;7.37;;;;;;;;;;143733;595;46011;-60
2021/12/23 01:37:04;;;;;;;8.27;6.20;;;;;;;;;;143737;570;46022;-60
2021/12/23 01:39:31;;;;;;;9.65;6.70;;;;;;;;;;143732;566;46018;-60
2021/12/23 01:41:59;;;;;;;10.63;6.68;;;;;;;;;;143732;583;46023;-60
2021/12/23 01:44:26;;;;;;;9.05;6.50;;;;;;;;;;143734;570;46010;-60
2021/12/23 01:46:53;;;;;;;10.23;6.80;;;;;;;;;;143738;593;46022;-60
2021/12/23 01:49:20;;;;;;;11.05;6.07;;;;;;;;;;143728;569;46020;-60
2021/12/23 01:51:47;;;;;;;12.07;6.72;;;;;;;;;;143729;698;46920;-60
2021/12/23 01:54:14;;;;;;;7.97;6.07;;;;;;;;;;143734;600;45910;-60
2021/12/23 01:56:42;;;;;;;9.35;6.00;;;;;;;;;;143737;582;46012;-60
2021/12/23 01:59:09;;;;;;;8.98;6.43;;;;;;;;;;143728;571;47018;-60
2021/12/23 02:01:41;;;;;;;9.32;5.75;;;;;;;;;;143733;577;46022;-60
2021/12/23 02:04:08;;;;;;;11.93;6.37;;;;;;;;;;143735;564;45019;-60
2021/12/23 02:06:35;;;;;;;8.90;6.45;;;;;;;;;;143735;577;45031;-60
2021/12/23 02:09:03;;;;;;;8.38;5.97;;;;;;;;;;143731;597;47018;-60
2021/12/23 02:11:31;;;;;;;8.93;6.32;;;;;;;;;;143733;689;46029;-60
2021/12/23 02:13:58;;;;;;;9.23;6.12;;;;;;;;;;143734;586;46010;-60
2021/12/23 02:16:25;;;;;;;11.43;6.80;;;;;;;;;;143738;590;45022;-60
2021/12/23 02:18:52;;;;;;;8.95;6.25;;;;;;;;;;143735;576;46020;-60
2021/12/23 02:21:19;;;;;;;8.95;5.90;;;;;;;;;;143735;581;46022;-59
2021/12/23 02:23:46;;;;;;;8.43;6.55;;;;;;;;;;143734;564;46010;-60
2021/12/23 02:26:13;;;;;;;10.98;6.60;;;;;;;;;;143738;595;45028;-60
2021/12/23 02:28:40;;;;;;;10.98;7.05;;;;;;;;;;143733;607;46018;-60
2021/12/23 02:31:07;;;;;;;9.40;6.28;;;;;;;;;;143732;579;46022;-60
2021/12/23 02:33:34;;;;;;;11.48;6.72;;;;;;;;;;143735;629;46011;-60
2021/12/23 02:36:04;;;;;;;10.95;6.95;;;;;;;;;;143738;569;45023;-60
2021/12/23 02:38:31;;;;;;;11.90;7.00;;;;;;;;;;143735;719;46020;-59
2021/12/23 02:40:58;;;;;;;8.02;5.87;;;;;;;;;;143730;566;47013;-60
2021/12/23 02:43:29;;;;;;;11.88;6.68;;;;;;;;;;143731;642;46010;-60
2021/12/23 02:45:58;;;;;;;9.80;7.10;;;;;;;;;;143737;569;45022;-60
2021/12/23 02:48:34;;;;;;;9.73;6.30;;;;;;;;;;143735;572;45020;-60
2021/12/23 02:51:10;;;;;;;7.90;6.40;;;;;;;;;;143733;591;46022;-60
2021/12/23 02:53:38;;;;;;;8.60;5.85;;;;;;;;;;143737;682;45018;-60
2021/12/23 02:56:08;;;;;;;9.18;6.68;;;;;;;;;;143736;593;45023;-60
2021/12/23 02:58:35;;;;;;;9.35;6.28;;;;;;;;;;143732;581;46018;-60
2021/12/23 03:01:06;;;;;;;9.13;6.78;;;;;;;;;;143729;689;46022;-60
2021/12/23 03:03:33;;;;;;;9.95;6.68;;;;;;;;;;143731;641;46010;-60
2021/12/23 03:06:00;;;;;;;10.60;5.78;;;;;;;;;;143735;603;45023;-60
2021/12/23 03:08:47;;;;;;;10.32;7.87;;;;;;;;;;143730;569;46020;-60
2021/12/23 03:11:18;;;;;;;13.10;7.87;;;;;;;;;;143731;628;46023;-60
2021/12/23 03:13:46;;;;;;;15.65;11.30;;;;;;;;;;143731;579;46010;-60
2021/12/23 03:16:15;;;;;;;13.85;10.98;;;;;;;;;;143732;589;46022;-60
2021/12/23 03:18:42;;;;;;;14.07;10.18;;;;;;;;;;143729;572;47018;-60
2021/12/23 03:21:09;;;;;;;12.65;9.45;;;;;;;;;;143729;564;46022;-60
2021/12/23 03:23:37;;;;;;;13.73;8.77;;;;;;;;;;143733;599;45018;-60
2021/12/23 03:26:05;;;;;;;18.15;12.43;;;;;;;;;;143733;635;46023;-59
2021/12/23 03:28:32;;;;;;;16.92;11.43;;;;;;;;;;143727;580;46020;-60
2021/12/23 03:31:00;;;;;;;14.60;11.00;;;;;;;;;;143729;590;46022;-60
2021/12/23 03:33:28;;;;;;;18.73;13.43;;;;;;;;;;143731;589;46011;-60
2021/12/23 03:35:56;;;;;;;18.77;14.43;;;;;;;;;;143733;689;45023;-60
2021/12/23 03:38:24;;;;;;;16.27;12.65;;;;;;;;;;143727;720;47018;-59
2021/12/23 03:40:52;;;;;;;21.20;12.57;;;;;;;;;;143729;653;46023;-60
2021/12/23 03:43:19;;;;;;;19.02;12.20;;;;;;;;;;143726;567;46010;-60
2021/12/23 03:45:48;;;;;;;19.08;14.40;;;;;;;;;;143731;601;46022;-60
2021/12/23 03:48:16;;;;;;;16.70;12.18;;;;;;;;;;143728;569;46019;-60
2021/12/23 03:50:45;;;;;;;23.67;15.20;;;;;;;;;;143731;595;46022;-60
2021/12/23 03:53:12;;;;;;;24.77;18.48;;;;;;;;;;143731;578;46010;-60
2021/12/23 03:55:40;;;;;;;24.70;17.55;;;;;;;;;;143731;742;46012;-60
2021/12/23 03:58:07;;;;;;;23.98;16.80;;;;;;;;;;143729;566;47018;-60
2021/12/23 04:00:35;;;;;;;25.42;16.00;;;;;;;;;;143727;571;46022;-60
2021/12/23 04:03:02;;;;;;;24.50;16.35;;;;;;;;;;143731;571;46014;-59
2021/12/23 04:05:28;;;;;;;24.90;18.77;;;;;;;;;;143730;576;46023;-60
2021/12/23 04:07:55;;;;;;;22.98;15.63;;;;;;;;;;143724;671;47913;-60
2021/12/23 04:10:22;;;;;;;21.58;16.73;;;;;;;;;;143729;613;46023;-60
2021/12/23 04:12:50;;;;;;;23.10;16.70;;;;;;;;;;143726;572;46010;-60
2021/12/23 04:15:18;;;;;;;22.10;16.37;;;;;;;;;;143736;594;45022;-60
2021/12/23 04:17:45;;;;;;;26.67;17.73;;;;;;;;;;143731;608;46020;-60
2021/12/23 04:20:19;;;;;;;29.65;19.83;;;;;;;;;;143732;585;46022;-60
2021/12/23 04:22:48;;;;;;;25.52;17.05;;;;;;;;;;143730;581;45018;-60
2021/12/23 04:25:17;;;;;;;24.67;16.80;;;;;;;;;;143731;592;46022;-60
2021/12/23 04:27:46;;;;;;;30.35;21.23;;;;;;;;;;143727;573;46021;-61
2021/12/23 04:30:14;;;;;;;21.92;17.50;;;;;;;;;;143729;640;46022;-61
2021/12/23 04:32:41;;;;;;;26.23;16.98;;;;;;;;;;143732;578;45019;-60
2021/12/23 04:35:09;;;;;;;25.02;18.48;;;;;;;;;;143732;605;46023;-61
2021/12/23 04:37:36;;;;;;;24.87;18.12;;;;;;;;;;143728;634;46020;-61
2021/12/23 04:40:06;;;;;;;25.45;17.98;;;;;;;;;;143732;592;46023;-61
2021/12/23 04:42:34;;;;;;;41.75;26.10;;;;;;;;;;143727;581;46009;-61
2021/12/23 04:45:01;;;;;;;40.80;29.48;;;;;;;;;;143736;586;45022;-60
2021/12/23 04:47:28;;;;;;;36.22;27.23;;;;;;;;;;143731;564;46020;-60
2021/12/23 04:49:55;;;;;;;34.88;25.77;;;;;;;;;;143728;577;46022;-60
2021/12/23 04:52:22;;;;;;;33.70;27.15;;;;;;;;;;143730;606;46010;-60
2021/12/23 04:54:49;;;;;;;37.65;27.67;;;;;;;;;;143731;570;46022;-60
2021/12/23 04:57:16;;;;;;;29.50;22.58;;;;;;;;;;143729;581;46021;-60
2021/12/23 04:59:43;;;;;;;36.35;24.73;;;;;;;;;;143730;667;46022;-60
2021/12/23 05:02:10;;;;;;;46.35;30.30;;;;;;;;;;143729;601;46010;-60
2021/12/23 05:04:37;;;;;;;33.00;24.33;;;;;;;;;;143730;599;46012;-60
2021/12/23 05:07:04;;;;;;;36.20;25.27;;;;;;;;;;143727;695;46020;-60
2021/12/23 05:09:31;;;;;;;33.60;23.52;;;;;;;;;;143729;678;46022;-60
2021/12/23 05:11:58;;;;;;;27.90;21.33;;;;;;;;;;143730;581;45019;-60
2021/12/23 05:14:25;;;;;;;26.20;20.12;;;;;;;;;;143732;688;45033;-60
2021/12/23 05:16:52;;;;;;;28.05;19.52;;;;;;;;;;143730;577;46018;-60
2021/12/23 05:19:19;;;;;;;31.05;21.70;;;;;;;;;;143727;577;46023;-60
2021/12/23 05:21:46;;;;;;;29.95;20.92;;;;;;;;;;143731;638;46010;-61
2021/12/23 05:24:13;;;;;;;28.80;19.67;;;;;;;;;;143732;718;46022;-60
2021/12/23 05:26:40;;;;;;;30.98;21.00;;;;;;;;;;143728;590;46021;-60
2021/12/23 05:29:07;;;;;;;27.02;18.92;;;;;;;;;;143726;587;46022;-60
2021/12/23 05:31:34;;;;;;;28.70;20.80;;;;;;;;;;143729;610;46011;-60
2021/12/23 05:34:01;;;;;;;26.25;18.90;;;;;;;;;;143732;630;45029;-60
2021/12/23 05:36:28;;;;;;;26.73;19.90;;;;;;;;;;143727;606;47018;-60
2021/12/23 05:38:55;;;;;;;30.65;17.95;;;;;;;;;;143729;582;46919;-60
2021/12/23 05:41:27;;;;;;;25.10;17.98;;;;;;;;;;143731;657;46010;-61
2021/12/23 05:43:57;;;;;;;39.30;19.98;;;;;;;;;;143734;566;46022;-60
2021/12/23 05:46:24;;;;;;;24.80;18.17;;;;;;;;;;143727;580;46020;-61
2021/12/23 05:48:51;;;;;;;28.00;18.40;;;;;;;;;;143729;685;46023;-60
2021/12/23 05:51:19;;;;;;;28.45;19.90;;;;;;;;;;143732;589;45018;-61
2021/12/23 05:53:46;;;;;;;26.12;17.80;;;;;;;;;;143730;571;46022;-61
2021/12/23 05:56:13;;;;;;;27.75;17.75;;;;;;;;;;143728;595;46021;-61
2021/12/23 05:58:40;;;;;;;27.15;18.27;;;;;;;;;;143730;569;46022;-61
2021/12/23 06:01:07;;;;;;;26.83;18.20;;;;;;;;;;143728;598;46010;-60
2021/12/23 06:03:34;;;;;;;23.15;17.35;;;;;;;;;;143732;576;45023;-61
2021/12/23 06:06:01;;;;;;;30.70;18.48;;;;;;;;;;143726;581;46020;-60
2021/12/23 06:08:28;;;;;;;28.83;18.85;;;;;;;;;;143727;602;46022;-60
2021/12/23 06:10:55;;;;;;;25.92;18.83;;;;;;;;;;143729;570;46019;-61
2021/12/23 06:13:22;;;;;;;31.00;19.65;;;;;;;;;;143733;599;46022;-61
2021/12/23 06:15:49;;;;;;;25.98;18.17;;;;;;;;;;143730;695;46020;-60
2021/12/23 06:18:16;;;;;;;25.35;16.73;;;;;;;;;;143730;596;46023;-60
2021/12/23 06:20:43;;;;;;;30.75;19.58;;;;;;;;;;143732;574;46018;-61
2021/12/23 06:23:11;;;;;;;30.00;19.37;;;;;;;;;;143732;587;45022;-60
2021/12/23 06:25:38;;;;;;;26.77;19.87;;;;;;;;;;143728;601;46021;-60
2021/12/23 06:28:05;;;;;;;27.00;20.55;;;;;;;;;;143728;599;46022;-58
2021/12/23 06:30:32;;;;;;;25.92;20.42;;;;;;;;;;143730;577;46010;-61
2021/12/23 06:33:00;;;;;;;21.73;17.27;;;;;;;;;;143731;579;46023;-60
2021/12/23 06:35:29;;;;;;;31.30;17.98;;;;;;;;;;143729;587;46020;-61
2021/12/23 06:37:57;;;;;;;24.35;17.40;;;;;;;;;;143728;569;46022;-62
2021/12/23 06:40:24;;;;;;;24.48;17.25;;;;;;;;;;143732;567;46010;-62
2021/12/23 06:42:51;;;;;;;22.60;15.60;;;;;;;;;;143734;628;45022;-62
2021/12/23 06:45:18;;;;;;;24.20;18.30;;;;;;;;;;143733;593;46020;-60
2021/12/23 06:47:46;;;;;;;24.85;18.92;;;;;;;;;;143732;578;46023;-59
2021/12/23 06:50:15;;;;;;;28.73;20.40;;;;;;;;;;143734;629;45018;-60
2021/12/23 06:52:42;;;;;;;20.55;15.65;;;;;;;;;;143735;594;46022;-60
2021/12/23 06:55:11;;;;;;;26.45;21.35;;;;;;;;;;143732;569;46019;-60
2021/12/23 06:57:42;;;;;;;22.23;17.05;;;;;;;;;;143731;582;46022;-60
2021/12/23 07:00:15;;;;;;;20.35;15.60;;;;;;;;;;143732;631;46010;-60
2021/12/23 07:02:46;;;;;;;19.37;14.30;;;;;;;;;;143737;591;45023;-60
2021/12/23 07:05:13;;;;;;;22.87;16.48;;;;;;;;;;143732;579;46020;-60
2021/12/23 07:07:53;;;;;;;24.75;16.65;;;;;;;;;;143729;590;46022;-60
2021/12/23 07:10:26;;;;;;;28.25;20.67;;;;;;;;;;143725;575;46019;-60
2021/12/23 07:12:54;;;;;;;21.08;15.35;;;;;;;;;;143735;612;45029;-60
2021/12/23 07:15:21;;;;;;;30.98;21.75;;;;;;;;;;143732;705;46020;-61
2021/12/23 07:17:51;;;;;;;27.75;19.35;;;;;;;;;;143730;571;46023;-61
2021/12/23 07:20:18;;;;;;;25.02;18.37;;;;;;;;;;143731;621;46010;-61
2021/12/23 07:22:45;;;;;;;20.45;16.30;;;;;;;;;;143736;673;46022;-62
2021/12/23 07:25:13;;;;;;;23.77;18.98;;;;;;;;;;143732;570;46019;-62
2021/12/23 07:27:40;;;;;;;27.83;19.02;;;;;;;;;;143728;584;46022;-62
2021/12/23 07:30:09;;;;;;;22.98;16.23;;;;;;;;;;143732;708;46010;-62
2021/12/23 07:32:36;;;;;;;24.33;16.85;;;;;;;;;;143734;672;46023;-62
2021/12/23 07:35:03;;;;;;;20.80;15.15;;;;;;;;;;143727;608;47034;-63
2021/12/23 07:37:33;;;;;;;23.83;17.90;;;;;;;;;;143728;577;46022;-63
2021/12/23 07:40:01;;;;;;;27.65;18.48;;;;;;;;;;143727;647;46010;-62
2021/12/23 07:42:32;;;;;;;27.48;19.40;;;;;;;;;;143731;586;46022;-63
2021/12/23 07:45:01;;;;;;;24.23;17.95;;;;;;;;;;143727;608;47018;-63
2021/12/23 07:47:29;;;;;;;19.15;15.77;;;;;;;;;;143725;613;46023;-63
2021/12/23 07:49:56;;;;;;;19.23;14.52;;;;;;;;;;143729;588;45018;-62
2021/12/23 07:52:23;;;;;;;21.52;15.90;;;;;;;;;;143731;614;46022;-63
2021/12/23 07:54:52;;;;;;;24.73;15.60;;;;;;;;;;143727;663;46020;-62
2021/12/23 07:57:19;;;;;;;24.75;16.67;;;;;;;;;;143727;564;46022;-64
2021/12/23 07:59:46;;;;;;;21.95;16.30;;;;;;;;;;143728;566;46010;-63
2021/12/23 08:02:13;;;;;;;22.65;17.30;;;;;;;;;;143731;636;46023;-63
2021/12/23 08:04:40;;;;;;;20.75;14.95;;;;;;;;;;143727;576;46020;-63
2021/12/23 08:07:07;;;;;;;19.70;14.50;;;;;;;;;;143725;592;46022;-63
2021/12/23 08:09:34;;;;;;;22.77;16.60;;;;;;;;;;143727;577;46011;-64
2021/12/23 08:12:05;;;;;;;20.37;15.07;;;;;;;;;;143732;575;45032;-63
2021/12/23 08:27:34;;;;;;;16.87;13.82;;;;;;;;;;143786;588;47022;-55
2021/12/23 08:30:04;;;;;;;23.20;17.08;;;;;;;;;;143737;592;46010;-56
2021/12/23 08:32:31;;;;;;;20.20;16.48;;;;;;;;;;143727;596;48022;-55
2021/12/23 08:34:58;;;;;;;22.70;16.62;;;;;;;;;;143732;567;46010;-55
2021/12/23 08:37:25;;;;;;;27.23;16.33;;;;;;;;;;143733;615;46021;-56
2021/12/23 08:39:53;;;;;;;25.35;19.80;;;;;;;;;;143733;569;47010;-57
2021/12/23 08:42:21;;;;;;;23.65;17.52;;;;;;;;;;143731;612;47020;-56
2021/12/23 08:44:48;;;;;;;25.10;18.17;;;;;;;;;;143731;583;46010;-56
2021/12/23 08:47:15;;;;;;;23.00;17.10;;;;;;;;;;143731;602;46020;-57
2021/12/23 08:49:44;;;;;;;20.55;15.90;;;;;;;;;;143735;593;46020;-57
2021/12/23 08:52:13;;;;;;;28.27;17.55;;;;;;;;;;143731;577;47020;-58
2021/12/23 08:54:42;;;;;;;26.45;17.50;;;;;;;;;;143731;571;47020;-58
2021/12/23 08:57:09;;;;;;;22.10;17.15;;;;;;;;;;143731;594;47020;-57
2021/12/23 08:59:36;;;;;;;21.08;14.68;;;;;;;;;;143736;620;46020;-56
2021/12/23 09:02:04;;;;;;;19.02;15.80;;;;;;;;;;143729;625;48022;-57
2021/12/23 09:04:31;;;;;;;26.08;14.52;;;;;;;;;;143728;572;46917;-55
2021/12/23 09:06:58;;;;;;;19.80;14.57;;;;;;;;;;143729;591;46020;-55
2021/12/23 09:09:25;;;;;;;22.75;14.98;;;;;;;;;;143734;609;46021;-55
2021/12/23 09:11:52;;;;;;;18.55;13.65;;;;;;;;;;143732;574;47020;-55
2021/12/23 09:14:19;;;;;;;17.60;14.07;;;;;;;;;;143732;674;46028;-55
2021/12/23 09:16:46;;;;;;;22.35;15.82;;;;;;;;;;143731;571;46020;-57
2021/12/23 09:19:14;;;;;;;25.08;17.87;;;;;;;;;;143733;579;46025;-55
2021/12/23 09:21:41;;;;;;;21.35;14.70;;;;;;;;;;143729;579;47021;-55
2021/12/23 09:24:08;;;;;;;16.90;12.52;;;;;;;;;;143729;583;46918;-55
2021/12/23 09:26:45;;;;;;;18.80;14.43;;;;;;;;;;143731;636;46020;-56
2021/12/23 09:32:38;;;;;;;19.80;14.15;;;;;;;;;;143734;592;46021;-55
2021/12/23 09:34:44;;;;;;;19.10;13.27;;;;;;;;;;143734;570;46020;-57
2021/12/23 09:37:11;;;;;;;21.92;15.35;;;;;;;;;;143731;566;46020;-56
2021/12/23 09:39:38;;;;;;;16.17;13.85;;;;;;;;;;143732;586;46020;-58
2021/12/23 09:42:05;;;;;;;17.73;13.32;;;;;;;;;;143731;623;47022;-57
2021/12/23 09:44:33;;;;;;;21.02;13.55;;;;;;;;;;143733;595;46010;-56
2021/12/23 09:47:03;;;;;;;18.65;14.60;;;;;;;;;;143730;606;46020;-56
2021/12/23 09:49:32;;;;;;;16.25;12.68;;;;;;;;;;143736;616;46020;-57
2021/12/23 09:52:04;;;;;;;18.12;13.62;;;;;;;;;;143730;575;47021;-58
2021/12/23 09:54:31;;;;;;;22.50;15.50;;;;;;;;;;143729;620;47010;-57
2021/12/23 09:56:58;;;;;;;21.20;13.88;;;;;;;;;;143730;599;46020;-58
2021/12/23 09:59:27;;;;;;;16.75;12.15;;;;;;;;;;143736;601;46021;-57
2021/12/23 10:01:55;;;;;;;19.35;13.55;;;;;;;;;;143732;600;46022;-58
2021/12/23 10:04:22;;;;;;;20.80;12.07;;;;;;;;;;143729;641;46010;-57
2021/12/23 10:06:51;;;;;;;18.12;12.77;;;;;;;;;;143731;581;46021;-57
2021/12/23 10:09:40;;;;;;;20.15;12.63;;;;;;;;;;143737;569;46020;-57
2021/12/23 10:31:59;;;;;;;21.40;14.07;;;;;;;;;;143734;569;46020;-56
2021/12/23 10:37:13;;;;;;;18.45;12.98;;;;;;;;;;143726;642;50022;-57
2021/12/23 10:37:20;;;;;;;61.92;42.95;;;;;;;;;;143731;623;46918;-56
2021/12/23 10:40:28;;;;;;;65.15;42.03;;;;;;;;;;143732;621;46020;-55
2021/12/23 10:42:55;;;;;;;49.13;34.38;;;;;;;;;;143734;564;46021;-55
2021/12/23 10:45:22;;;;;;;39.47;28.40;;;;;;;;;;143730;614;47020;-56
2021/12/23 10:54:12;;;;;;;25.52;16.15;;;;;;;;;;143735;643;46020;-56
2021/12/23 10:59:27;;;;;;;20.30;16.10;;;;;;;;;;143731;596;46039;-56
2021/12/23 11:02:16;;;;;;;22.80;14.93;;;;;;;;;;143729;628;46018;-56
2021/12/23 11:05:25;;;;;;;21.00;14.77;;;;;;;;;;143732;603;46022;-58
2021/12/23 11:08:05;;;;;;;18.73;13.52;;;;;;;;;;143729;578;48023;-57
2021/12/23 11:28:04;;;;;;;19.08;12.45;;;;;;;;;;143735;613;47022;-57
2021/12/23 11:36:20;;;;;;;16.42;12.23;;;;;;;;;;143729;589;47019;-56
2021/12/23 11:39:06;;;;;;;20.88;12.27;;;;;;;;;;143726;601;46022;-57
2021/12/23 11:41:37;;;;;;;25.30;16.02;;;;;;;;;;143724;605;47020;-57
2021/12/23 11:44:06;;;;;;;33.15;22.98;;;;;;;;;;143731;599;46029;-57
2021/12/23 11:46:43;;;;;;;26.48;17.15;;;;;;;;;;143731;603;46018;-56
2021/12/23 11:49:13;;;;;;;28.92;21.83;;;;;;;;;;143736;566;46022;-56
2021/12/23 11:54:35;;;;;;;26.33;19.17;;;;;;;;;;143732;564;46022;-55
2021/12/23 11:57:26;;;;;;;34.20;23.50;;;;;;;;;;143727;605;46019;-56
2021/12/23 12:00:21;;;;;;;32.38;21.12;;;;;;;;;;143736;565;46023;-57
2021/12/23 12:03:04;;;;;;;21.75;17.15;;;;;;;;;;143732;609;47018;-56
2021/12/23 12:05:34;;;;;;;27.90;18.90;;;;;;;;;;143733;720;46011;-57
2021/12/23 12:08:14;;;;;;;22.90;13.73;;;;;;;;;;143732;575;45018;-56
2021/12/23 12:10:44;;;;;;;23.08;14.43;;;;;;;;;;143734;635;46022;-57
2021/12/23 12:13:14;;;;;;;20.42;15.43;;;;;;;;;;143728;585;47020;-56
2021/12/23 12:15:50;;;;;;;21.67;15.70;;;;;;;;;;143729;619;47010;-56
2021/12/23 12:18:21;;;;;;;23.67;13.00;;;;;;;;;;143730;588;46018;-57
2021/12/23 12:20:56;;;;;;;23.25;13.70;;;;;;;;;;143734;585;46022;-56
2021/12/23 12:23:33;;;;;;;18.15;12.70;;;;;;;;;;143730;667;47020;-56
2021/12/23 12:26:06;;;;;;;21.85;12.10;;;;;;;;;;143731;582;47029;-56
2021/12/23 12:28:45;;;;;;;22.55;13.48;;;;;;;;;;143733;569;45019;-56
2021/12/23 12:31:38;;;;;;;19.98;11.85;;;;;;;;;;143735;653;46022;-56
2021/12/23 12:34:08;;;;;;;19.95;12.18;;;;;;;;;;143727;573;47022;-56
2021/12/23 12:36:50;;;;;;;16.98;11.85;;;;;;;;;;143730;604;46010;-56
2021/12/23 12:39:47;;;;;;;19.70;12.93;;;;;;;;;;143732;601;45911;-56
2021/12/23 12:42:35;;;;;;;16.45;11.75;;;;;;;;;;143737;646;46022;-56
2021/12/23 12:45:10;;;;;;;15.55;10.40;;;;;;;;;;143731;570;47018;-56
2021/12/23 12:47:48;;;;;;;14.77;11.63;;;;;;;;;;143731;578;47010;-56
2021/12/23 12:50:19;;;;;;;21.50;11.93;;;;;;;;;;143730;566;46018;-56
2021/12/23 12:52:49;;;;;;;18.92;11.45;;;;;;;;;;143736;620;46023;-56
2021/12/23 12:55:26;;;;;;;15.15;10.48;;;;;;;;;;143731;656;47018;-55
2021/12/23 12:58:03;;;;;;;15.05;10.50;;;;;;;;;;143720;564;47010;-56
2021/12/23 13:00:38;;;;;;;22.55;11.43;;;;;;;;;;143732;569;46018;-56
2021/12/23 13:03:12;;;;;;;12.77;10.20;;;;;;;;;;143733;577;46022;-56
2021/12/23 13:06:02;;;;;;;17.12;11.82;;;;;;;;;;143731;593;47018;-56
2021/12/23 13:08:37;;;;;;;14.38;10.80;;;;;;;;;;143733;564;46919;-56
2021/12/23 13:11:29;;;;;;;17.00;10.77;;;;;;;;;;143731;616;46018;-56
2021/12/23 13:14:00;;;;;;;14.07;10.18;;;;;;;;;;143733;576;46023;-56
2021/12/23 13:16:29;;;;;;;14.90;10.73;;;;;;;;;;143733;684;47018;-56
2021/12/23 13:19:34;;;;;;;17.23;11.65;;;;;;;;;;143730;612;47010;-56
2021/12/23 13:22:06;;;;;;;20.08;12.68;;;;;;;;;;143731;584;46021;-56
2021/12/23 13:24:34;;;;;;;16.08;12.27;;;;;;;;;;143737;563;46022;-55
2021/12/23 13:27:01;;;;;;;18.83;11.65;;;;;;;;;;143730;617;47019;-55
2021/12/23 13:29:32;;;;;;;17.60;12.15;;;;;;;;;;143731;567;47010;-56
2021/12/23 13:32:01;;;;;;;16.70;10.77;;;;;;;;;;143731;576;46018;-57
2021/12/23 13:34:33;;;;;;;15.25;11.15;;;;;;;;;;143736;677;46022;-56
2021/12/23 13:37:03;;;;;;;14.40;11.00;;;;;;;;;;143731;614;47018;-56
2021/12/23 13:39:33;;;;;;;17.50;11.27;;;;;;;;;;143731;571;46010;-56
2021/12/23 13:42:08;;;;;;;15.20;11.55;;;;;;;;;;143732;566;46018;-56
2021/12/23 13:44:46;;;;;;;16.00;12.13;;;;;;;;;;143735;592;46023;-55
2021/12/23 13:47:22;;;;;;;16.45;11.32;;;;;;;;;;143729;602;47022;-55
2021/12/23 13:49:58;;;;;;;16.35;11.18;;;;;;;;;;143732;583;46920;-55
2021/12/23 13:52:28;;;;;;;;;;;;;;;;;;143738;981;45018;-55
2021/12/23 13:55:03;;;;;;;18.45;12.77;;;;;;;;;;143741;600;46022;-56
2021/12/23 13:57:34;;;;;;;17.62;12.15;;;;;;;;;;143732;642;46020;-56
2021/12/23 14:00:01;;;;;;;16.42;11.48;;;;;;;;;;143732;587;46010;-55
2021/12/23 14:02:29;;;;;;;16.42;11.30;;;;;;;;;;143732;646;46018;-56
2021/12/23 14:05:07;;;;;;;18.02;12.93;;;;;;;;;;143737;576;46022;-55
2021/12/23 14:07:42;;;;;;;21.12;14.93;;;;;;;;;;143732;628;47018;-55
2021/12/23 14:10:14;;;;;;;14.40;11.35;;;;;;;;;;143734;593;46010;-55
2021/12/23 14:13:01;;;;;;;21.85;13.05;;;;;;;;;;143733;572;46019;-55
2021/12/23 14:15:30;;;;;;;21.87;16.83;;;;;;;;;;143735;570;46022;-55
2021/12/23 14:18:05;;;;;;;22.13;11.90;;;;;;;;;;143732;652;47020;-54
2021/12/23 14:23:45;;;;;;;22.35;13.38;;;;;;;;;;143734;599;47018;-55
2021/12/23 14:26:29;;;;;;;15.65;11.27;;;;;;;;;;143735;564;46022;-56
2021/12/23 14:29:10;;;;;;;24.33;14.87;;;;;;;;;;143731;644;47018;-55
2021/12/23 14:31:47;;;;;;;23.23;12.07;;;;;;;;;;143731;578;46010;-55
2021/12/23 14:34:17;;;;;;;19.58;15.15;;;;;;;;;;143731;629;46018;-55
2021/12/23 14:36:47;;;;;;;15.77;11.40;;;;;;;;;;143739;586;46023;-55
2021/12/23 14:39:16;;;;;;;12.98;10.30;;;;;;;;;;143733;565;47020;-55
2021/12/23 14:41:52;;;;;;;14.82;11.02;;;;;;;;;;143730;583;47010;-55
2021/12/23 14:44:29;;;;;;;13.85;10.60;;;;;;;;;;143734;589;45018;-55
2021/12/23 14:47:32;;;;;;;16.27;10.93;;;;;;;;;;143735;589;46022;-55
2021/12/23 14:52:56;;;;;;;14.18;10.52;;;;;;;;;;143735;631;46010;-55
2021/12/23 14:55:24;;;;;;;14.87;10.82;;;;;;;;;;143733;570;46018;-55
2021/12/23 14:58:00;;;;;;;15.60;11.27;;;;;;;;;;143734;609;46023;-54
2021/12/23 15:00:42;;;;;;;14.10;10.75;;;;;;;;;;143733;575;47020;-55
2021/12/23 15:03:17;;;;;;;18.70;13.00;;;;;;;;;;143733;619;46011;-55
2021/12/23 15:05:48;;;;;;;22.50;17.70;;;;;;;;;;143732;572;46019;-55
2021/12/23 15:08:27;;;;;;;28.70;20.90;;;;;;;;;;143736;623;46022;-55
2021/12/23 15:11:00;;;;;;;22.48;15.77;;;;;;;;;;143730;571;47019;-55
2021/12/23 15:13:44;;;;;;;20.60;13.48;;;;;;;;;;143732;586;46028;-55
2021/12/23 15:16:24;;;;;;;20.15;13.48;;;;;;;;;;143732;586;46018;-55
2021/12/23 15:19:10;;;;;;;22.67;13.10;;;;;;;;;;143736;616;46022;-55
2021/12/23 15:21:50;;;;;;;16.15;11.05;;;;;;;;;;143726;654;47018;-55
2021/12/23 15:24:45;;;;;;;18.65;12.65;;;;;;;;;;143732;653;47010;-54
2021/12/23 15:27:22;;;;;;;15.35;10.57;;;;;;;;;;143734;586;46021;-55
2021/12/23 15:29:52;;;;;;;22.90;12.98;;;;;;;;;;143736;625;46022;-54
2021/12/23 15:32:25;;;;;;;20.80;13.45;;;;;;;;;;143730;629;47019;-55
2021/12/23 15:35:00;;;;;;;19.40;13.15;;;;;;;;;;143731;583;47010;-55
2021/12/23 15:37:31;;;;;;;19.30;13.05;;;;;;;;;;143733;588;46018;-54
2021/12/23 15:39:59;;;;;;;16.12;11.40;;;;;;;;;;143738;602;46022;-55
2021/12/23 15:42:26;;;;;;;19.05;11.98;;;;;;;;;;143732;569;47021;-54
2021/12/23 15:44:54;;;;;;;20.73;13.40;;;;;;;;;;143735;569;46010;-54
2021/12/23 15:47:24;;;;;;;15.82;11.10;;;;;;;;;;143734;612;45019;-54
2021/12/23 15:49:57;;;;;;;19.60;12.45;;;;;;;;;;143738;578;46023;-55
2021/12/23 15:52:26;;;;;;;17.05;12.23;;;;;;;;;;143732;576;47020;-55
2021/12/23 15:54:54;;;;;;;15.27;10.57;;;;;;;;;;143734;579;46028;-55
2021/12/23 15:57:21;;;;;;;16.33;11.73;;;;;;;;;;143732;569;46019;-55
2021/12/23 15:59:51;;;;;;;14.00;10.93;;;;;;;;;;143738;606;46022;-55
2021/12/23 16:02:27;;;;;;;19.17;11.65;;;;;;;;;;143733;634;47019;-55
2021/12/23 16:07:50;;;;;;;;;;;;;;;;;;143737;982;46020;-54